Terminal Aerodrome Forecast
Issued by NWS Charleston, WV

Current Version | Previous Version | Graphics & Text | Print | Product List | Glossary On
Versions: 1 2 3 4 5 6 7 8 9 10 11 12 13 14 15 16 17 18 19 20 21 22 23 24 25
000
FTUS41 KRLX 281400 AAA
TAFPKB
TAF AMD
KPKB 281428Z 2814/2912 21011G19KT P6SM SCT050 BKN200
     FM281600 22015G25KT P6SM BKN050
     FM282100 22010G16KT 6SM BR BKN035
     FM290100 25006KT 3SM -TSRA BR BKN035CB
     FM290300 27005KT 6SM -SHRA BR BKN045=

USA.gov is the U.S. government's official web portal to all federal, state and local government web resources and services.